Impacts METAR Board
IDs:

KDEN - Denver Intl, CO, US

Updated at: 2100 UTC 06 Dec 2019
Potential Impact None Slight Moderate High
Time 06/09Z 06/10Z 06/11Z 06/12Z 06/13Z 06/14Z 06/15Z 06/16Z 06/17Z 06/18Z 06/19Z 06/20Z 06/21Z
Temp27 25 28 27 27 27 28 32 35 38 42 40 39
Dewpt25 23 24 23 24 24 26 28 30 32 33 33 34
Altim30.23 30.22 30.22 30.23 30.24 30.24 30.25 30.25 30.26 30.24 30.22 30.21 30.20
VIS7 10 10 10 10 10 10 10 10 10 10 10 10
CIG-- -- -- -- -- -- -- -- -- -- -- -- --
CoverFEWFEWFEWFEWCLRFEWSCTCLRFEWFEWFEWFEWFEW
FltCatVFRVFRVFRVFRVFRVFRVFRVFRVFRVFRVFRVFRVFR
WX--------------------------
WDir17017018021026024022024024027030040160
WSpd8 9 5 5 6 7 9 7 9 4 4 4 4
WGst-- -- -- -- -- -- -- -- -- -- -- -- --
Raw hourly METARs
KDEN 060853Z 17008KT 7SM FEW005 M03/M04 A3023 RMK AO2 SLP251 T10281039 56010
KDEN 060953Z 17009KT 10SM FEW005 M04/M05 A3022 RMK AO2 SLP255 T10391050
KDEN 061053Z 18005KT 10SM FEW005 M02/M04 A3022 RMK AO2 SLP252 T10221044
KDEN 061153Z 21005KT 10SM FEW005 M03/M05 A3023 RMK AO2 SLP254 70012 T10281050 10000 21044 53000
KDEN 061253Z 26006KT 10SM CLR M03/M04 A3024 RMK AO2 SLP257 T10281044
KDEN 061353Z 24007KT 10SM FEW004 FEW080 FEW220 M03/M04 A3024 RMK AO2 SLP260 ACSL DSNT W T10281044
KDEN 061453Z 22009KT 10SM FEW080 SCT220 M02/M03 A3025 RMK AO2 SLP259 T10221033 51006
KDEN 061553Z 24007KT 10SM CLR 00/M02 A3025 RMK AO2 SLP254 T00001022
KDEN 061653Z 24009KT 10SM FEW080 FEW220 02/M01 A3026 RMK AO2 SLP254 T00171011
KDEN 061753Z 27004KT 10SM FEW080 FEW220 03/00 A3024 RMK AO2 SLP245 T00330000 10033 21033 58002
KDEN 061853Z 30004KT 10SM FEW080 FEW220 06/01 A3022 RMK AO2 SLP236 T00560006
KDEN 061953Z 04004KT 10SM FEW080 FEW220 04/01 A3021 RMK AO2 SLP236 T00440006
KDEN 062053Z 16004KT 10SM FEW080 FEW220 04/01 A3020 RMK AO2 SLP235 T00390011 56013



Page loaded:  21:12 UTC  |   01:12 PM Pacific  |   02:12 PM Mountain  |   03:12 PM Central  |   04:12 PM Eastern

 

ADVISORIES

FORECASTS

FORECASTS

OBSERVATIONS

USER TOOLS

ABOUT US